Nearby METAR Reports

 

KSJC - San Jose, California, USA
Distance from station: NE 9mi, 14km
Updated: 12/15/2017 4:53am
Clear
Clear
 Wind from ESE
Wind: ESE 5 mph , 7 km/h
Temperature: 43°F , 6°C
Wind Chill: 40°F , 4°C
Dew Point: 36°F , 2°C
Humidity: 76%
Barometer: 30.17 inHg , 1021.7 hPa
Clouds: Clear
Visibility: 10 miles , 16 km
2017/12/15 09:53 KSJC 150953Z AUTO 12004KT 10SM CLR 06/02 A3017 RMK AO2 SLP217 T00560017
KNUQ - Moffett Nas/Mtn, California, USA
Distance from station: N 9mi, 14km
Updated: 12/15/2017 4:56am
Clear
Clear
 Wind from SSW
Wind: SSW 3 mph , 6 km/h
Temperature: 43°F , 6°C
Dew Point: 36°F , 2°C
Humidity: 76%
Barometer: 30.18 inHg , 1022 hPa
Clouds: Clear
Visibility: 10 miles , 16 km
2017/12/15 09:56 KNUQ 150956Z 21003KT 10SM CLR 06/02 A3018 RMK AO2 SLP221 T00610022
 
KPAO - Palo Alto, California, USA
Distance from station: NNW 14mi, 23km
Updated: 12/14/2017 11:47pm
NOT Current
Clear
Clear
 Wind from calm
Wind: Calm
Temperature: 46°F , 8°C
Dew Point: 39°F , 4°C
Humidity: 76%
Barometer: 30.14 inHg , 1020.7 hPa
Clouds: Clear
Visibility: 10 miles , 16 km
2017/12/15 04:47 KPAO 150447Z 00000KT 10SM SKC 08/04 A3014 RMK LAST
KRHV - San Jose/Reid, California, USA
Distance from station: ENE 12mi, 19km
Updated: 12/15/2017 12:47am
NOT Current
Clear
Clear
 Wind from calm
Wind: Calm
Temperature: 46°F , 8°C
Dew Point: 37°F , 3°C
Humidity: 71%
Barometer: 30.14 inHg , 1020.7 hPa
Clouds: Clear
Visibility: 10 miles , 16 km
2017/12/15 05:47 KRHV 150547Z 00000KT 10SM SKC 08/03 A3014 RMK LAST
 
KOAK - Oakland, California, USA
Distance from station: NNW 31mi, 50km
Updated: 12/15/2017 4:53am
Mist, Clear
Mist, Clear
 Wind from ENE
Wind: ENE 3 mph , 6 km/h
Temperature: 41°F , 5°C
Dew Point: 39°F , 4°C
Humidity: 93%
Barometer: 30.17 inHg , 1021.7 hPa
Summary: Mist
Clouds: Clear
Visibility: 6 miles , 10 km
2017/12/15 09:53 KOAK 150953Z 06003KT 6SM BR CLR 05/04 A3017 RMK AO2 SLP215 T00500044
KSQL - San Carlos Airpo, California, USA
Distance from station: NW 21mi, 34km
Updated: 12/15/2017 4:55am
Few Clouds
Few Clouds
 Wind from calm
Wind: Calm
Temperature: 45°F , 7°C
Dew Point: 37°F , 3°C
Humidity: 76%
Barometer: 30.17 inHg , 1021.7 hPa
Clouds: Few Clouds
Visibility: 10 miles , 16 km
Cloud details: Few Clouds 300 ft
2017/12/15 09:55 KSQL 150955Z AUTO 00000KT 10SM FEW003 07/03 A3017 RMK AO2
 
KSFO - San Francisco, California, USA
Distance from station: NW 30mi, 49km
Updated: 12/15/2017 4:56am
Few Clouds
Few Clouds
 Wind from SSW
Wind: SSW 3 mph , 6 km/h
Temperature: 45°F , 7°C
Dew Point: 37°F , 3°C
Humidity: 76%
Barometer: 30.17 inHg , 1021.7 hPa
Clouds: Few Clouds
Visibility: 8 miles , 13 km
Cloud details: Few Clouds 18000 ft
2017/12/15 09:56 KSFO 150956Z 20003KT 8SM FEW180 07/03 A3017 RMK AO2 SLP215 T00720033
KE16 - San Martin, California, USA
Distance from station: ESE 27mi, 43km
Updated: 12/15/2017 4:50am
Clear
Clear
 Wind from N
Wind: N 6 mph , 9 km/h
Temperature: 37°F , 3°C
Wind Chill: 32°F , 0°C
Dew Point: 32°F , 0°C
Humidity: 81%
Barometer: 30.19 inHg , 1022.4 hPa
Clouds: Clear
Visibility: 10 miles , 16 km
2017/12/15 09:50 KE16 150950Z AUTO 36005KT 10SM CLR 03/00 A3019 RMK AO2 PWINO PNO
 
KWVI - Watsonville, California, USA
Distance from station: SSE 27mi, 44km
Updated: 12/15/2017 4:53am
Clear
Clear
 Wind from W
Wind: W 3 mph , 6 km/h
Temperature: 45°F , 7°C
Dew Point: 36°F , 2°C
Humidity: 71%
Barometer: 30.16 inHg , 1021.3 hPa
Clouds: Clear
Visibility: 10 miles , 16 km
2017/12/15 09:53 KWVI 150953Z AUTO 28003KT 10SM CLR 07/02 A3016 RMK AO2 SLP211 T00670017
KHAF - Half Moon Bay, California, USA
Distance from station: WNW 31mi, 50km
Updated: 12/15/2017 4:55am
Partly cloudy
Partly cloudy
 Wind from calm
Wind: Calm
Temperature: 43°F , 6°C
Dew Point: 32°F , 0°C
Humidity: 66%
Barometer: 30.12 inHg , 1020 hPa
Clouds: Partly cloudy
Visibility: 10 miles , 16 km
Cloud details: Partly cloudy 300 ft
2017/12/15 09:55 KHAF 150955Z AUTO 00000KT 10SM SCT003 06/00 A3012 RMK AO2
 
KHWD - Hayward, California, USA
Distance from station: N 28mi, 44km
Updated: 12/15/2017 4:54am
Clear
Clear
 Wind from ENE
Wind: ENE 5 mph , 7 km/h
Temperature: 46°F , 8°C
Wind Chill: 44°F , 7°C
Dew Point: 32°F , 0°C
Humidity: 57%
Barometer: 30.16 inHg , 1021.3 hPa
Clouds: Clear
Visibility: 10 miles , 16 km
2017/12/15 09:54 KHWD 150954Z AUTO 07004KT 10SM CLR 08/00 A3016 RMK AO2 SLP224 T00830000
KLVK - Livermore, California, USA
Distance from station: NNE 31mi, 51km
Updated: 12/15/2017 4:53am
Haze, Clear
Haze, Clear
 Wind from calm
Wind: Calm
Temperature: 37°F , 3°C
Dew Point: 32°F , 0°C
Humidity: 81%
Barometer: 30.19 inHg , 1022.4 hPa
Summary: Haze
Clouds: Clear
Visibility: 6 miles , 10 km
2017/12/15 09:53 KLVK 150953Z AUTO 00000KT 6SM HZ CLR 03/00 A3019 RMK AO2 SLP222 T00330000